sensor_id;sensor_type;location;lat;lon;timestamp;P1;durP1;ratioP1;P2;durP2;ratioP2
26177;SDS011;13924;47.670;10.310;2023-08-07T00:00:44;2.9;;;2.0;;
26177;SDS011;13924;47.670;10.310;2023-08-07T00:15:41;4.6;;;2.4;;
26177;SDS011;13924;47.670;10.310;2023-08-07T00:30:43;5.9;;;2.1;;
26177;SDS011;13924;47.670;10.310;2023-08-07T00:45:43;4.1;;;2.1;;
26177;SDS011;13924;47.670;10.310;2023-08-07T01:00:45;2.7;;;1.9;;
26177;SDS011;13924;47.670;10.310;2023-08-07T01:01:26;2.9;;;2.3;;
26177;SDS011;13924;47.670;10.310;2023-08-07T01:15:44;1.4;;;0.9;;
26177;SDS011;13924;47.670;10.310;2023-08-07T01:30:46;1.3;;;1.1;;
26177;SDS011;13924;47.670;10.310;2023-08-07T01:45:45;3.7;;;2.1;;
26177;SDS011;13924;47.670;10.310;2023-08-07T02:00:47;4.7;;;2.7;;
26177;SDS011;13924;47.670;10.310;2023-08-07T02:15:47;4.8;;;3.0;;
26177;SDS011;13924;47.670;10.310;2023-08-07T02:30:52;4.0;;;2.9;;
26177;SDS011;13924;47.670;10.310;2023-08-07T02:45:48;5.1;;;3.4;;
26177;SDS011;13924;47.670;10.310;2023-08-07T03:00:49;4.5;;;2.8;;
26177;SDS011;13924;47.670;10.310;2023-08-07T03:15:49;4.3;;;2.6;;
26177;SDS011;13924;47.670;10.310;2023-08-07T03:30:51;4.0;;;2.8;;
26177;SDS011;13924;47.670;10.310;2023-08-07T03:45:53;5.6;;;2.7;;
26177;SDS011;13924;47.670;10.310;2023-08-07T04:00:51;4.4;;;2.4;;
26177;SDS011;13924;47.670;10.310;2023-08-07T04:03:46;4.0;;;2.4;;
26177;SDS011;13924;47.670;10.310;2023-08-07T04:18:47;4.6;;;2.0;;
26177;SDS011;13924;47.670;10.310;2023-08-07T04:33:47;3.4;;;2.1;;
26177;SDS011;13924;47.670;10.310;2023-08-07T04:48:49;3.1;;;1.9;;
26177;SDS011;13924;47.670;10.310;2023-08-07T05:03:48;2.7;;;2.2;;
26177;SDS011;13924;47.670;10.310;2023-08-07T05:18:50;4.9;;;2.4;;
26177;SDS011;13924;47.670;10.310;2023-08-07T05:33:50;3.8;;;2.0;;
26177;SDS011;13924;47.670;10.310;2023-08-07T05:48:51;4.7;;;2.0;;
26177;SDS011;13924;47.670;10.310;2023-08-07T06:03:53;3.0;;;1.7;;
26177;SDS011;13924;47.670;10.310;2023-08-07T06:18:53;5.1;;;2.1;;
26177;SDS011;13924;47.670;10.310;2023-08-07T06:33:53;4.3;;;2.2;;
26177;SDS011;13924;47.670;10.310;2023-08-07T06:48:55;4.7;;;2.5;;
26177;SDS011;13924;47.670;10.310;2023-08-07T07:03:54;2.4;;;1.6;;
26177;SDS011;13924;47.670;10.310;2023-08-07T07:18:56;4.0;;;2.0;;
26177;SDS011;13924;47.670;10.310;2023-08-07T07:33:56;3.1;;;2.4;;
26177;SDS011;13924;47.670;10.310;2023-08-07T07:48:57;4.2;;;2.0;;
26177;SDS011;13924;47.670;10.310;2023-08-07T08:03:57;2.2;;;2.0;;
26177;SDS011;13924;47.670;10.310;2023-08-07T08:19:00;2.1;;;1.7;;
26177;SDS011;13924;47.670;10.310;2023-08-07T08:33:58;1.6;;;1.5;;
26177;SDS011;13924;47.670;10.310;2023-08-07T08:48:59;2.9;;;2.0;;
26177;SDS011;13924;47.670;10.310;2023-08-07T09:04:00;2.1;;;1.6;;
26177;SDS011;13924;47.670;10.310;2023-08-07T09:19:00;1.9;;;1.3;;
26177;SDS011;13924;47.670;10.310;2023-08-07T09:34:01;2.5;;;1.3;;
26177;SDS011;13924;47.670;10.310;2023-08-07T09:49:01;1.5;;;1.0;;
26177;SDS011;13924;47.670;10.310;2023-08-07T10:04:02;2.0;;;1.2;;
26177;SDS011;13924;47.670;10.310;2023-08-07T10:19:03;2.2;;;1.3;;
26177;SDS011;13924;47.670;10.310;2023-08-07T10:34:04;2.9;;;1.5;;
26177;SDS011;13924;47.670;10.310;2023-08-07T10:49:04;3.7;;;1.7;;
26177;SDS011;13924;47.670;10.310;2023-08-07T11:04:06;2.2;;;1.4;;
26177;SDS011;13924;47.670;10.310;2023-08-07T11:19:05;1.4;;;0.9;;
26177;SDS011;13924;47.670;10.310;2023-08-07T11:34:06;1.5;;;1.4;;
26177;SDS011;13924;47.670;10.310;2023-08-07T11:49:07;0.8;;;0.6;;
26177;SDS011;13924;47.670;10.310;2023-08-07T12:04:08;0.6;;;0.6;;
26177;SDS011;13924;47.670;10.310;2023-08-07T12:19:09;1.6;;;0.9;;
26177;SDS011;13924;47.670;10.310;2023-08-07T12:34:17;1.6;;;1.0;;
26177;SDS011;13924;47.670;10.310;2023-08-07T12:49:10;0.7;;;0.6;;
26177;SDS011;13924;47.670;10.310;2023-08-07T13:04:10;1.2;;;1.1;;
26177;SDS011;13924;47.670;10.310;2023-08-07T13:19:16;2.1;;;1.3;;
26177;SDS011;13924;47.670;10.310;2023-08-07T13:34:14;1.2;;;1.1;;
26177;SDS011;13924;47.670;10.310;2023-08-07T13:49:13;3.7;;;1.2;;
26177;SDS011;13924;47.670;10.310;2023-08-07T14:04:13;1.4;;;1.2;;
26177;SDS011;13924;47.670;10.310;2023-08-07T14:19:15;2.0;;;1.5;;
26177;SDS011;13924;47.670;10.310;2023-08-07T14:34:14;2.0;;;0.7;;
26177;SDS011;13924;47.670;10.310;2023-08-07T14:49:14;0.9;;;0.7;;
26177;SDS011;13924;47.670;10.310;2023-08-07T15:04:18;1.1;;;0.4;;
26177;SDS011;13924;47.670;10.310;2023-08-07T15:19:18;1.5;;;0.6;;
26177;SDS011;13924;47.670;10.310;2023-08-07T15:34:18;1.1;;;1.0;;
26177;SDS011;13924;47.670;10.310;2023-08-07T15:49:18;1.2;;;1.1;;
26177;SDS011;13924;47.670;10.310;2023-08-07T16:04:18;0.8;;;0.7;;
26177;SDS011;13924;47.670;10.310;2023-08-07T16:19:19;1.3;;;1.1;;
26177;SDS011;13924;47.670;10.310;2023-08-07T16:34:20;0.9;;;0.6;;
26177;SDS011;13924;47.670;10.310;2023-08-07T16:49:20;1.0;;;0.8;;
26177;SDS011;13924;47.670;10.310;2023-08-07T17:04:21;1.1;;;0.9;;
26177;SDS011;13924;47.670;10.310;2023-08-07T17:19:21;1.6;;;1.3;;
26177;SDS011;13924;47.670;10.310;2023-08-07T17:34:23;1.2;;;0.9;;
26177;SDS011;13924;47.670;10.310;2023-08-07T17:49:23;4.1;;;1.1;;
26177;SDS011;13924;47.670;10.310;2023-08-07T18:04:24;1.0;;;0.9;;
26177;SDS011;13924;47.670;10.310;2023-08-07T18:19:25;2.3;;;0.8;;
26177;SDS011;13924;47.670;10.310;2023-08-07T18:34:26;0.9;;;0.8;;
26177;SDS011;13924;47.670;10.310;2023-08-07T18:49:26;1.3;;;0.8;;
26177;SDS011;13924;47.670;10.310;2023-08-07T19:04:27;1.6;;;0.8;;
26177;SDS011;13924;47.670;10.310;2023-08-07T19:19:27;2.2;;;1.1;;
26177;SDS011;13924;47.670;10.310;2023-08-07T19:34:28;1.2;;;1.0;;
26177;SDS011;13924;47.670;10.310;2023-08-07T19:49:28;1.7;;;1.2;;
26177;SDS011;13924;47.670;10.310;2023-08-07T20:04:28;1.8;;;1.1;;
26177;SDS011;13924;47.670;10.310;2023-08-07T20:19:29;1.4;;;1.0;;
26177;SDS011;13924;47.670;10.310;2023-08-07T20:34:30;6.2;;;1.0;;
26177;SDS011;13924;47.670;10.310;2023-08-07T20:49:31;1.6;;;1.4;;
26177;SDS011;13924;47.670;10.310;2023-08-07T21:04:32;1.4;;;1.3;;
26177;SDS011;13924;47.670;10.310;2023-08-07T21:19:32;2.0;;;1.3;;
26177;SDS011;13924;47.670;10.310;2023-08-07T21:34:33;1.3;;;1.2;;
26177;SDS011;13924;47.670;10.310;2023-08-07T21:49:33;1.9;;;1.1;;
26177;SDS011;13924;47.670;10.310;2023-08-07T22:00:35;2.1;;;1.2;;
26177;SDS011;13924;47.670;10.310;2023-08-07T22:15:33;1.4;;;1.1;;
26177;SDS011;13924;47.670;10.310;2023-08-07T22:30:34;2.2;;;1.1;;
26177;SDS011;13924;47.670;10.310;2023-08-07T22:45:34;2.7;;;1.2;;
26177;SDS011;13924;47.670;10.310;2023-08-07T23:00:35;2.8;;;1.3;;
26177;SDS011;13924;47.670;10.310;2023-08-07T23:15:36;2.5;;;1.3;;
26177;SDS011;13924;47.670;10.310;2023-08-07T23:30:37;1.6;;;1.1;;
26177;SDS011;13924;47.670;10.310;2023-08-07T23:45:37;1.8;;;0.9;;
